Nearby METAR Reports

 

KSJC - San Jose, California, USA
Distance from station: NE 14km
Updated: 22/10/2020 17:53
Few Clouds
Few Clouds
 Wind from SSE
Wind: SSE 9 km/h
Temperature: 17°C
Dew Point: 11°C
Humidity: 68%
Barometer: 1011.9 hPa
Clouds: Few Clouds
Visibility: 16 km
Cloud details: Few Clouds 335 m
2020/10/22 16:53 KSJC 221653Z 16005KT 10SM FEW011 17/11 A2988 RMK AO2 SLP118 T01720106
KNUQ - Moffett Nas/Mtn, California, USA
Distance from station: N 14km
Updated: 22/10/2020 14:55
NOT Current
Few Clouds
Few Clouds
 Wind from calm
Wind: Calm
Temperature: 14°C
Dew Point: 10°C
Humidity: 77%
Barometer: 1010.2 hPa
Clouds: Few Clouds
Visibility: 16 km
Cloud details: Few Clouds 518 m
2020/10/22 13:55 KNUQ 221355Z AUTO 00000KT 10SM FEW017 14/10 A2983 RMK AO2
 
KPAO - Palo Alto, California, USA
Distance from station: NNW 23km
Updated: 22/10/2020 16:47
NOT Current
Clear
Clear
 Wind from calm
Wind: Calm
Temperature: 15°C
Dew Point: 12°C
Humidity: 82%
Barometer: 1011.5 hPa
Clouds: Clear
Visibility: 16 km
2020/10/22 15:47 KPAO 221547Z 00000KT 10SM SKC 15/12 A2987
KRHV - San Jose/Reid, California, USA
Distance from station: ENE 19km
Updated: 22/10/2020 17:47
Clear
Clear
 Wind from varies
Wind: varies 6 km/h
Temperature: 17°C
Dew Point: 11°C
Humidity: 68%
Barometer: 1012.2 hPa
Clouds: Clear
Visibility: 16 km
2020/10/22 16:47 KRHV 221647Z VRB03KT 10SM SKC 17/11 A2989
 
KOAK - Oakland, California, USA
Distance from station: NNW 50km
Updated: 22/10/2020 17:53
Few Clouds
Few Clouds
 Wind from W
Wind: W 9 km/h
Temperature: 19°C
Dew Point: 13°C
Humidity: 68%
Barometer: 1012.2 hPa
Clouds: Few Clouds
Visibility: 16 km
Cloud details: Few Clouds 366 m
Few Clouds 6096 m
2020/10/22 16:53 KOAK 221653Z 28005KT 10SM FEW012 FEW200 19/13 A2989 RMK AO2 SLP121 T01890128
KSQL - San Carlos Airpo, California, USA
Distance from station: NW 34km
Updated: 22/10/2020 17:47
Clear
Clear
 Wind from calm
Wind: Calm
Temperature: 18°C
Dew Point: 14°C
Humidity: 78%
Barometer: 1012.2 hPa
Clouds: Clear
Visibility: 16 km
2020/10/22 16:47 KSQL 221647Z 00000KT 10SM SKC 18/14 A2989
 
KSFO - San Francisco, California, USA
Distance from station: NW 49km
Updated: 22/10/2020 17:56
Few Clouds
Few Clouds
 Wind from calm
Wind: Calm
Temperature: 18°C
Dew Point: 12°C
Humidity: 68%
Barometer: 1011.9 hPa
Clouds: Few Clouds
Visibility: 14 km
Cloud details: Few Clouds 305 m
2020/10/22 16:56 KSFO 221656Z 00000KT 9SM FEW010 18/12 A2988 RMK AO2 SLP117 T01830122
KE16 - San Martin, California, USA
Distance from station: ESE 43km
Updated: 22/10/2020 18:35
Mostly cloudy
Mostly cloudy
 Wind from SSE
Wind: SSE 7 km/h
Temperature: 14°C
Dew Point: 11°C
Humidity: 82%
Barometer: 1013.2 hPa
Clouds: Mostly cloudy
Visibility: 14 km
Cloud details: Mostly cloudy 244 m
2020/10/22 17:35 KE16 221735Z AUTO 15004KT 9SM BKN008 14/11 A2992 RMK AO2 PWINO PNO
 
KWVI - Watsonville, California, USA
Distance from station: SSE 44km
Updated: 22/10/2020 17:53
Overcast
Overcast
 Wind from W
Wind: W 9 km/h
Temperature: 14°C
Dew Point: 12°C
Humidity: 88%
Barometer: 1012.9 hPa
Clouds: Overcast
Visibility: 13 km
Cloud details: Overcast 213 m
2020/10/22 16:53 KWVI 221653Z AUTO 26005KT 8SM OVC007 14/12 A2991 RMK AO2 SLP128 T01440122
KHAF - Half Moon Bay, California, USA
Distance from station: WNW 50km
Updated: 22/10/2020 18:35
Mist, Overcast
Mist, Overcast
 Wind from SE
Wind: SE 11 km/h
Temperature: 14°C
Dew Point: 12°C
Humidity: 88%
Barometer: 1012.9 hPa
Summary: Mist
Clouds: Overcast
Visibility: 5 km
Cloud details: Overcast 183 m
2020/10/22 17:35 KHAF 221735Z AUTO 14006KT 3SM BR OVC006 14/12 A2991 RMK AO2
 
KHWD - Hayward, California, USA
Distance from station: N 44km
Updated: 22/10/2020 17:54
Clear
Clear
 Wind from calm
Wind: Calm
Temperature: 19°C
Dew Point: 11°C
Humidity: 60%
Barometer: 1011.9 hPa
Clouds: Clear
Visibility: 16 km
2020/10/22 16:54 KHWD 221654Z 00000KT 10SM CLR 19/11 A2988 RMK AO2 SLP126 T01940111
KLVK - Livermore, California, USA
Distance from station: NNE 51km
Updated: 22/10/2020 17:53
Clear
Clear
 Wind from N
Wind: N 26 km/h, Gust: 48 km/h
Temperature: 23°C
Dew Point: -8°C
Humidity: 12%
Barometer: 1011.9 hPa
Clouds: Clear
Visibility: 16 km
2020/10/22 16:53 KLVK 221653Z 01014G26KT 330V040 10SM CLR 23/M08 A2988 RMK AO2 PK WND 02026/1652 SLP115 T02331078